Skip to main content

NOAA/GLERL Met Station at Muskegon, MI

Previous 5 days (top of hour only)
See also Previous 3 Hours (2 minute increments)
Jump down to Data
Switch to [English][Metric]
Zoom: Click and drag, Pan: shift-click and drag, Unzoom: double-click, Unzoom All






Note: Speed = mean wind during 2-minute period at top of hour,
Gust = max wind during 2-minute period at top of hour,
Peak = max wind during entire hour.
• See also 5-day windrose plot


NOAA/GLERL Met Station at Muskegon, MI

Previous 5 days (top of hour only)
See also Previous 3 Hours (2 minute increments)
Jump up to Graphs
Switch to [English][Metric]
                  Wind  Wind  Wind   Air   Dew   Rel     Sta   PAR
                   Spd   Gst   Dir  Temp    Pt   Hum    Pres uE/m2/
YYYY-MM-DD   EST   kts   kts   deg     F     F     %   in Hg   sec
2019-02-15 23:00  11.3  13.6    15  26.2  18.4  72.1   29.38     2
2019-02-15 22:00  10.7  14.0     8  25.9  17.7  70.8   29.37     2
2019-02-15 21:00  10.7  14.6     7  25.5  17.0  69.7   29.36     2
2019-02-15 20:00  13.6  16.5   353  23.7  16.2  72.6   29.35     2
2019-02-15 19:00   8.7  11.5     1  22.5  15.0  72.7   29.34     2
2019-02-15 18:00  13.0  15.2   342  20.8  13.8  73.9   29.33    34
2019-02-15 17:00  16.1  18.3   335  20.3  14.0  76.3   29.31   356
2019-02-15 16:00  19.8  22.0   324  20.1  13.2  74.3   29.29   706
2019-02-15 15:00  18.3  22.2   314  19.4  13.4  77.3   29.27   558
2019-02-15 14:00  18.5  20.4   313  18.5  12.9  78.5   29.24   845
2019-02-15 13:00  17.7  19.6   314  18.1  12.5  78.5   29.22   905
2019-02-15 12:00  15.7  19.4   329  18.0  12.9  80.2   29.20   758
2019-02-15 11:00  18.5  22.0   320  17.2  12.7  82.0   29.18   566
2019-02-15 10:00  23.1  25.7   320  17.2  13.1  83.7   29.15   254
2019-02-15 09:00  22.6  25.9   319  18.3  14.2  83.8   29.13   112
2019-02-15 08:00  20.8  25.5   318  19.8  15.2  82.3   29.10    16
2019-02-15 07:00  21.4  24.7   322  20.3  15.8  82.4   29.07     2
2019-02-15 06:00  24.5  27.8   335  21.4  15.9  79.1   29.05     2
2019-02-15 05:00  25.5  28.2   329  23.9  18.2  78.6   29.02     2
2019-02-15 04:00  26.4  31.9   321  25.9  20.2  78.8   29.00     2
2019-02-15 03:00  26.8  31.3   311  27.7  22.8  81.8   28.97     2
2019-02-15 02:00  28.6  35.2   328  30.0  25.0  81.3   28.92     2
2019-02-15 01:00  28.8  33.8   318  30.9  28.1  89.3   28.90     2
2019-02-15 00:00  18.1  22.2   319  34.2  30.3  85.7   28.85     2
2019-02-14 23:00  16.7  20.2   298  35.2  33.9  94.7   28.84     2
2019-02-14 22:00  11.5  12.2   240  34.5  34.3  99.2   28.82     2
2019-02-14 21:00  12.6  14.2   213  34.3  31.6  89.7   28.84     2
2019-02-14 20:00  13.0  14.0   195  36.3  31.2  81.4   28.86     2
2019-02-14 19:00  12.4  14.0   181  38.3  31.4  75.8   28.87     2
2019-02-14 18:00  15.4  17.1   180  39.0  31.0  72.6   28.86    24
2019-02-14 17:00  13.6  15.0   183  37.2  31.0  77.9   28.89   172
2019-02-14 16:00  13.2  14.8   185  38.1  30.7  74.2   28.91   424
2019-02-14 15:00  13.0  15.2   187  37.9  30.4  74.0   28.92   732
2019-02-14 14:00  15.0  17.1   182  37.8  30.1  73.7   28.94  1069
2019-02-14 13:00  11.9  14.4   192  37.2  30.0  74.9   29.00  1197
2019-02-14 12:00  12.1  13.6   185  36.9  29.1  73.3   29.03   621
2019-02-14 11:00  12.2  14.6   171  35.4  26.4  69.4   29.03   569
2019-02-14 10:00   7.8  10.3   133  31.3  23.5  72.7   29.04   917
2019-02-14 09:00   6.8   8.6   123  27.1  21.1  77.8   29.07   546
2019-02-14 08:00   9.5  11.5   126  25.7  20.2  79.5   29.07    28
2019-02-14 07:00  10.5  14.0   133  24.6  19.3  80.1   29.12     2
2019-02-14 06:00   9.1  12.4   124  23.4  19.1  83.5   29.14     2
2019-02-14 05:00  12.2  14.0   127  22.6  19.9  89.1   29.15     2
2019-02-14 04:00  10.7  12.8   123  22.3  19.4  88.6   29.18     2
2019-02-14 03:00   9.7  10.7   106  21.6  18.2  86.8   29.21     2
2019-02-14 02:00   7.2   8.7   242  29.8  24.9  81.5   29.25     2
2019-02-14 01:00   8.0   9.5   247  28.6  22.8  78.7   29.28     2
2019-02-14 00:00  12.6  14.0   267  28.2  21.6  76.1   29.28     2
2019-02-13 23:00  10.9  11.9   262  28.0  20.4  72.8   29.27     2
2019-02-13 22:00  13.4  15.0   269  28.2  21.0  74.2   29.27     2
2019-02-13 21:00  12.6  13.4   294  28.2  18.4  66.2   29.27     2
2019-02-13 20:00  11.3  12.2   298  27.9  18.7  68.1   29.27     2
2019-02-13 19:00  13.4  15.9   297  27.5  18.4  68.3   29.26     2
2019-02-13 18:00  15.9  17.5   314  27.7  17.0  64.0   29.25    82
2019-02-13 17:00  16.9  18.7   301  28.2  18.0  65.3   29.25  1380
2019-02-13 16:00  21.0  22.9   300  27.9  18.6  67.9   29.22  1246
2019-02-13 15:00  19.6  22.9   318  27.0  18.0  68.8   29.21  1034
2019-02-13 14:00  19.2  24.3   316  25.3  18.4  74.7   29.21  1053
2019-02-13 13:00  23.9  27.8   312  24.3  17.0  73.7   29.20  1040
2019-02-13 12:00  23.5  28.0   322  24.3  17.6  75.5   29.19   726
2019-02-13 11:00  27.2  31.1   328  23.4  17.0  76.4   29.17   671
2019-02-13 10:00  29.5  34.0   327  23.9  17.7  76.9   29.15   596
2019-02-13 09:00  31.5  35.6   317  24.4  19.0  79.4   29.12   275
2019-02-13 08:00  32.5  36.0   323  25.0  19.7  80.1   29.09    41
2019-02-13 07:00  29.0  34.6   323  25.3  21.8  86.2   29.06     2
2019-02-13 06:00  32.5  36.2   329  25.5  19.1  76.4   29.03     2
2019-02-13 05:00  25.9  30.1   328  24.6  19.1  79.4   29.00     2
2019-02-13 04:00  26.8  30.3   321  23.5  18.4  80.5   28.99     2
2019-02-13 03:00  28.6  30.9   318  23.5  18.7  81.4   28.98     2
2019-02-13 02:00  29.0  33.6   308  23.5  18.5  81.0   28.96     2
2019-02-13 01:00  30.7  33.0   308  23.9  17.4  75.9   28.94     2
2019-02-13 00:00  27.4  30.9   299  24.8  18.3  76.0   28.92     2
2019-02-12 23:00  29.4  35.4   309  25.2  19.8  80.0   28.91     2
2019-02-12 22:00  27.0  30.5   308  26.2  23.2  88.3   28.89     2
2019-02-12 21:00  19.8  22.0   311  29.7  27.5  91.6   28.85     2
2019-02-12 20:00  16.7  18.3   319  29.5  29.4  99.8   28.86     2
2019-02-12 19:00  11.9  13.6   352  28.4  28.4  99.8   28.84     2
2019-02-12 18:00   3.3   4.1     3  28.9  28.9  99.8   28.83    13
2019-02-12 17:00   4.5   6.2    84  28.8  28.7  99.8   28.81   167
2019-02-12 16:00   6.8   8.6    96  28.6  28.5  99.8   28.82   583
2019-02-12 15:00   5.1   7.6   114  28.6  28.2  98.4   28.83   552
2019-02-12 14:00  10.5  12.1   105  28.4  27.0  94.6   28.85   584
2019-02-12 13:00  11.1  14.6   106  27.7  26.0  93.4   28.89   819
2019-02-12 12:00  16.3  18.7   109  27.0  25.3  93.3   28.94   579
2019-02-12 11:00  13.4  18.3   110  26.8  22.8  84.9   28.97   404
2019-02-12 10:00  17.7  21.4   106  25.9  22.9  88.4   28.99   349
2019-02-12 09:00  22.4  27.2   106  25.2  23.5  93.5   29.02   163
2019-02-12 08:00  21.4  25.5   109  25.2  23.0  91.4   29.04    11
2019-02-12 07:00  22.0  29.0   106  25.2  22.8  90.7   29.03     2
2019-02-12 06:00  18.3  22.6    98  24.6  23.3  94.5   29.10     2
2019-02-12 05:00  17.9  24.9    97  25.0  23.2  93.0   29.16     2
2019-02-12 04:00  19.6  23.9    99  25.5  22.8  89.2   29.21     2
2019-02-12 03:00  20.2  28.6   103  25.5  22.3  87.5   29.25     2
2019-02-12 02:00  19.1  23.3   105  26.2  21.3  81.3   29.32     2
2019-02-12 01:00  21.0  26.4   106  26.4  21.2  80.4   29.33     2
2019-02-12 00:00  20.4  29.4   107  27.1  21.8  80.0   29.39     2
2019-02-11 23:00  16.7  23.1   104  27.3  22.7  82.5   29.44     2
2019-02-11 22:00  16.5  20.0   109  27.3  22.4  81.5   29.48     2
2019-02-11 21:00  17.3  22.0   110  27.5  22.8  82.2   29.51     2
2019-02-11 20:00  16.7  21.4   107  28.0  22.2  78.5   29.52     2
2019-02-11 19:00  18.7  23.3   105  28.4  21.9  76.5   29.51     2